Mesita, Colorado
Current Conditions -  °F | °C
As of 11:52 PM on Tuesday 21 Oct 2014 (Local Time) from KALS Reporting Station
Overcast Overcast  
Wind Chill: 45°   Ceiling: 7500
Heat Index: 49°   Visibility: 10mi
Dew Point: 39°   Wind: 8mph
Humidity: 69%   Direction: 170°S
Pressure: 30.15"   Gusts: NA
Location:  37.0838°N, 105.58°W
Report Text: KALS 220552Z AUTO 17007KT 10SM BKN075 OVC085 09/04 A3015 RMK AO2 SLP142 T00940039 10133 20089 51009
Loading
Personal Weather Stations






























Interactive Weather Map
Tropical Storm Tracking
New forecast layout! Learn more

10-Day Weather Forecast

Advertisements
Track Severe Weather on mobile